createdAt,value
2022-08-12T00:02:01.995Z,5.20
2022-08-12T00:04:24.200Z,5.50
2022-08-12T00:06:47.363Z,5.38
2022-08-12T00:09:08.439Z,5.07
2022-08-12T00:11:30.555Z,5.47
2022-08-12T00:13:51.578Z,5.13
2022-08-12T00:16:12.428Z,5.20
2022-08-12T00:18:33.378Z,5.38
2022-08-12T00:20:55.747Z,4.97
2022-08-12T00:23:17.161Z,5.07
2022-08-12T00:26:01.381Z,5.03
2022-08-12T00:28:20.715Z,5.00
2022-08-12T00:30:41.926Z,4.90
2022-08-12T00:33:04.097Z,5.40
2022-08-12T00:35:36.570Z,5.55
2022-08-12T00:37:58.036Z,4.83
2022-08-12T00:40:19.134Z,5.00
2022-08-12T00:42:23.357Z,5.70
2022-08-12T00:44:30.018Z,5.75
2022-08-12T00:46:45.807Z,5.80
2022-08-12T00:48:50.221Z,5.13
2022-08-12T00:50:57.208Z,5.28
2022-08-12T00:53:03.281Z,5.00
2022-08-12T00:55:07.715Z,4.78
2022-08-12T00:57:14.919Z,5.40
2022-08-12T00:59:18.662Z,4.97
2022-08-12T01:01:24.950Z,5.32
2022-08-12T01:03:51.953Z,4.78
2022-08-12T01:06:17.234Z,5.07
2022-08-12T01:08:43.407Z,5.13
2022-08-12T01:11:05.692Z,5.30
2022-08-12T01:13:19.325Z,5.07
2022-08-12T01:15:24.030Z,5.32
2022-08-12T01:17:30.070Z,5.78
2022-08-12T01:19:35.022Z,5.18
2022-08-12T01:22:06.254Z,5.25
2022-08-12T01:24:28.149Z,5.05
2022-08-12T01:26:39.817Z,5.75
2022-08-12T01:28:45.994Z,5.80
2022-08-12T01:30:51.797Z,5.82
2022-08-12T01:33:00.643Z,6.18
2022-08-12T01:35:07.494Z,5.57
2022-08-12T01:37:11.727Z,5.93
2022-08-12T01:39:18.342Z,5.80
2022-08-12T01:41:25.653Z,5.85
2022-08-12T01:43:32.062Z,5.88
2022-08-12T01:45:43.151Z,5.43
2022-08-12T01:47:58.165Z,6.05
2022-08-12T01:50:19.197Z,6.00
2022-08-12T01:52:36.180Z,6.10
2022-08-12T01:54:44.609Z,5.82
2022-08-12T01:56:53.169Z,5.55
2022-08-12T01:59:20.553Z,6.25
2022-08-12T02:01:30.709Z,6.18
2022-08-12T02:04:07.659Z,6.43
2022-08-12T02:06:38.938Z,6.25
2022-08-12T02:09:05.815Z,6.28
2022-08-12T02:11:21.658Z,6.38
2022-08-12T02:13:48.749Z,6.65
2022-08-12T02:16:00.307Z,6.15
2022-08-12T02:18:13.668Z,6.55
2022-08-12T02:20:24.418Z,7.55
2022-08-12T02:22:48.799Z,6.85
2022-08-12T02:24:54.701Z,6.65
2022-08-12T02:26:59.428Z,6.93
2022-08-12T02:29:03.981Z,6.68
2022-08-12T02:31:11.883Z,6.07
2022-08-12T02:33:17.544Z,6.82
2022-08-12T02:35:23.290Z,6.80
2022-08-12T02:37:30.478Z,6.53
2022-08-12T02:39:35.651Z,6.57
2022-08-12T02:41:44.100Z,6.88
2022-08-12T02:43:52.827Z,6.75
2022-08-12T02:46:01.779Z,6.85
2022-08-12T02:48:09.431Z,7.15
2022-08-12T02:50:16.310Z,6.95
2022-08-12T02:52:21.067Z,6.28
2022-08-12T02:54:26.467Z,6.57
2022-08-12T02:56:31.234Z,6.63
2022-08-12T02:58:41.424Z,6.82
2022-08-12T03:00:49.849Z,6.30
2022-08-12T03:02:56.262Z,6.32
2022-08-12T03:05:06.464Z,6.25
2022-08-12T03:07:13.065Z,6.60
2022-08-12T03:09:18.857Z,6.80
2022-08-12T03:11:27.478Z,6.10
2022-08-12T03:13:36.561Z,6.45
2022-08-12T03:15:40.858Z,6.45
2022-08-12T03:18:24.797Z,6.20
2022-08-12T03:20:28.062Z,5.88
2022-08-12T03:22:35.328Z,7.20
2022-08-12T03:24:42.525Z,6.63
2022-08-12T03:26:48.888Z,6.90
2022-08-12T03:28:54.435Z,6.07
2022-08-12T03:31:02.330Z,6.50
2022-08-12T03:33:07.219Z,6.38
2022-08-12T03:35:40.384Z,6.30
2022-08-12T03:37:43.015Z,6.55
2022-08-12T03:39:47.222Z,6.55
2022-08-12T03:41:57.991Z,6.30
2022-08-12T03:44:25.750Z,6.10
2022-08-12T03:46:52.388Z,6.38
2022-08-12T03:49:14.159Z,6.03
2022-08-12T03:51:35.087Z,7.28
2022-08-12T03:53:58.096Z,6.53
2022-08-12T03:56:19.170Z,5.93
2022-08-12T03:58:40.905Z,6.50
2022-08-12T04:00:46.284Z,6.32
2022-08-12T04:02:59.294Z,6.72
2022-08-12T04:05:03.993Z,6.70
2022-08-12T04:07:10.072Z,6.43
2022-08-12T04:09:16.420Z,6.18
2022-08-12T04:11:46.840Z,6.40
2022-08-12T04:13:51.868Z,6.13
2022-08-12T04:15:55.546Z,6.30
2022-08-12T04:18:07.068Z,6.32
2022-08-12T04:20:13.721Z,7.00
2022-08-12T04:22:17.533Z,7.53
2022-08-12T04:24:25.062Z,6.47
2022-08-12T04:26:29.221Z,7.32
2022-08-12T04:28:32.773Z,6.60
2022-08-12T04:30:38.095Z,7.13
2022-08-12T04:32:44.419Z,6.32
2022-08-12T04:34:48.642Z,6.88
2022-08-12T04:36:54.109Z,6.78
2022-08-12T04:38:59.804Z,6.82
2022-08-12T04:41:06.052Z,6.35
2022-08-12T04:44:00.724Z,6.72
2022-08-12T04:45:38.483Z,7.13
2022-08-12T04:47:42.260Z,6.72
2022-08-12T04:49:46.978Z,6.90
2022-08-12T04:51:57.611Z,6.70
2022-08-12T04:54:03.801Z,6.85
2022-08-12T04:56:11.147Z,6.25
2022-08-12T04:58:15.066Z,6.78
2022-08-12T05:00:18.746Z,6.90
2022-08-12T05:02:22.975Z,7.28
2022-08-12T05:04:28.185Z,7.00
2022-08-12T05:06:31.519Z,7.18
2022-08-12T05:08:37.030Z,7.05
2022-08-12T05:10:40.579Z,7.13
2022-08-12T05:12:49.074Z,7.22
2022-08-12T05:14:52.452Z,7.28
2022-08-12T05:16:55.706Z,6.90
2022-08-12T05:18:59.753Z,6.55
2022-08-12T05:21:03.353Z,6.45
2022-08-12T05:23:12.438Z,7.28
2022-08-12T05:25:18.461Z,7.18
2022-08-12T05:27:22.760Z,7.18
2022-08-12T05:30:06.534Z,6.50
2022-08-12T05:31:56.055Z,6.80
2022-08-12T05:33:59.339Z,6.30
2022-08-12T05:36:02.765Z,6.75
2022-08-12T05:38:23.501Z,6.55
2022-08-12T05:40:26.854Z,7.28
2022-08-12T05:42:32.531Z,7.38
2022-08-12T05:44:39.407Z,6.93
2022-08-12T05:46:42.852Z,6.07
2022-08-12T05:48:46.573Z,6.45
2022-08-12T05:50:50.410Z,7.03
2022-08-12T05:52:54.174Z,6.43
2022-08-12T05:54:58.076Z,6.70
2022-08-12T05:57:01.466Z,5.95
2022-08-12T05:59:07.816Z,6.95
2022-08-12T06:02:11.981Z,6.55
2022-08-12T06:03:35.935Z,6.30
2022-08-12T06:05:52.694Z,6.60
2022-08-12T06:08:02.880Z,7.07
2022-08-12T06:10:07.306Z,6.60
2022-08-12T06:12:11.668Z,6.72
2022-08-12T06:14:14.911Z,6.45
2022-08-12T06:16:23.710Z,7.07
2022-08-12T06:18:29.882Z,6.82
2022-08-12T06:20:33.899Z,6.88
2022-08-12T06:22:37.667Z,7.65
2022-08-12T06:24:41.099Z,6.60
2022-08-12T06:26:44.613Z,6.65
2022-08-12T06:28:51.097Z,7.03
2022-08-12T06:31:24.285Z,6.30
2022-08-12T06:33:22.338Z,6.70
2022-08-12T06:35:47.956Z,6.28
2022-08-12T06:37:56.769Z,6.38
2022-08-12T06:40:03.877Z,6.40
2022-08-12T06:42:33.685Z,6.55
2022-08-12T06:44:37.059Z,6.35
2022-08-12T06:46:40.285Z,5.88
2022-08-12T06:48:45.074Z,6.63
2022-08-12T06:50:49.345Z,5.65
2022-08-12T06:52:53.150Z,5.60
2022-08-12T06:54:58.646Z,5.10
2022-08-12T06:57:04.790Z,4.95
2022-08-12T06:59:08.943Z,5.18
2022-08-12T07:01:13.129Z,5.30
2022-08-12T07:03:27.863Z,5.65
2022-08-12T07:05:33.247Z,5.57
2022-08-12T07:07:39.012Z,5.40
2022-08-12T07:10:06.818Z,5.78
2022-08-12T07:12:19.948Z,4.97
2022-08-12T07:14:24.620Z,4.95
2022-08-12T07:16:48.106Z,5.13
2022-08-12T07:18:53.851Z,5.55
2022-08-12T07:21:01.167Z,6.05
2022-08-12T07:23:06.902Z,5.72
2022-08-12T07:25:28.295Z,5.82
2022-08-12T07:27:31.582Z,5.82
2022-08-12T07:30:03.764Z,6.40
2022-08-12T07:31:59.858Z,6.20
2022-08-12T07:34:03.207Z,5.97
2022-08-12T07:36:10.803Z,5.50
2022-08-12T07:38:28.816Z,5.55
2022-08-12T07:40:33.358Z,5.47
2022-08-12T07:42:36.885Z,5.40
2022-08-12T07:44:40.340Z,5.45
2022-08-12T07:46:44.655Z,5.57
2022-08-12T07:48:52.157Z,5.68
2022-08-12T07:50:56.011Z,7.30
2022-08-12T07:53:01.243Z,5.97
2022-08-12T07:55:05.556Z,5.82
2022-08-12T07:57:12.546Z,5.38
2022-08-12T07:59:16.082Z,4.82
2022-08-12T08:01:21.850Z,5.15
2022-08-12T08:03:26.052Z,4.88
2022-08-12T08:05:31.845Z,4.90
2022-08-12T08:07:35.268Z,5.53
2022-08-12T08:09:40.123Z,5.55
2022-08-12T08:12:01.132Z,4.88
2022-08-12T08:14:06.275Z,5.13
2022-08-12T08:16:10.282Z,5.43
2022-08-12T08:18:26.435Z,5.38
2022-08-12T08:20:34.011Z,5.43
2022-08-12T08:22:41.921Z,5.53
2022-08-12T08:24:47.260Z,5.72
2022-08-12T08:26:52.295Z,6.15
2022-08-12T08:28:55.791Z,5.53
2022-08-12T08:30:59.193Z,5.95
2022-08-12T08:33:02.561Z,5.72
2022-08-12T08:35:14.799Z,6.70
2022-08-12T08:37:21.369Z,6.07
2022-08-12T08:39:28.315Z,6.00
2022-08-12T08:42:15.533Z,6.07
2022-08-12T08:44:13.974Z,6.18
2022-08-12T08:46:17.292Z,5.70
2022-08-12T08:48:22.305Z,5.68
2022-08-12T08:50:25.620Z,6.10
2022-08-12T08:52:39.636Z,5.40
2022-08-12T08:54:44.283Z,6.03
2022-08-12T08:56:50.452Z,6.35
2022-08-12T08:58:54.199Z,5.68
2022-08-12T09:00:57.589Z,6.10
2022-08-12T09:03:04.538Z,5.90
2022-08-12T09:05:43.106Z,5.25
2022-08-12T09:08:09.196Z,5.28
2022-08-12T09:13:02.498Z,4.78
2022-08-12T09:15:17.099Z,4.88
2022-08-12T09:17:25.372Z,4.70
2022-08-12T09:19:29.607Z,5.22
2022-08-12T09:26:28.330Z,4.47
2022-08-12T09:28:37.242Z,4.93
2022-08-12T09:30:45.595Z,4.43
2022-08-12T09:33:04.398Z,4.95
2022-08-12T09:35:22.075Z,4.57
2022-08-12T09:37:26.907Z,4.13
2022-08-12T09:40:02.131Z,4.32
2022-08-12T09:42:39.128Z,4.55
2022-08-12T09:45:03.500Z,3.67
2022-08-12T09:47:15.321Z,4.38
2022-08-12T09:49:18.981Z,4.35
2022-08-12T09:51:37.435Z,3.90
2022-08-12T09:53:42.232Z,4.15
2022-08-12T09:55:59.621Z,4.45
2022-08-12T09:58:56.855Z,4.50
2022-08-12T10:00:52.069Z,4.45
2022-08-12T10:03:02.359Z,4.38
2022-08-12T10:05:13.717Z,4.45
2022-08-12T10:07:24.809Z,3.75
2022-08-12T10:09:58.658Z,4.07
2022-08-12T10:12:12.829Z,3.70
2022-08-12T10:14:18.930Z,3.70
2022-08-12T10:16:43.951Z,3.47
2022-08-12T10:18:51.529Z,3.72
2022-08-12T10:20:57.319Z,4.13
2022-08-12T10:23:01.942Z,4.32
2022-08-12T10:26:18.478Z,4.20
2022-08-12T10:28:16.219Z,4.28
2022-08-12T10:30:39.791Z,4.28
2022-08-12T10:32:58.661Z,4.88
2022-08-12T10:35:02.665Z,4.32
2022-08-12T10:37:22.563Z,4.38
2022-08-12T10:40:06.887Z,4.18
2022-08-12T10:42:14.809Z,4.32
2022-08-12T10:44:19.532Z,3.70
2022-08-12T10:46:24.332Z,4.57
2022-08-12T10:48:36.627Z,4.30
2022-08-12T10:51:01.160Z,4.13
2022-08-12T10:53:10.219Z,4.13
2022-08-12T10:55:13.907Z,4.80
2022-08-12T10:58:15.402Z,4.47
2022-08-12T11:00:33.936Z,4.30
2022-08-12T11:04:25.353Z,3.70
2022-08-12T11:04:48.823Z,4.18
2022-08-12T11:07:06.815Z,4.30
2022-08-12T11:09:41.719Z,4.40
2022-08-12T11:12:36.017Z,4.22
2022-08-12T11:14:47.871Z,4.30
2022-08-12T11:16:33.002Z,4.15
2022-08-12T11:18:37.128Z,4.72
2022-08-12T11:20:42.938Z,4.07
2022-08-12T11:22:58.517Z,4.05
2022-08-12T11:25:10.411Z,4.45
2022-08-12T11:27:15.520Z,4.22
2022-08-12T11:29:22.833Z,4.53
2022-08-12T11:31:26.666Z,4.38
2022-08-12T11:34:05.952Z,3.92
2022-08-12T11:36:16.309Z,4.07
2022-08-12T11:38:21.751Z,3.92
2022-08-12T11:40:26.939Z,3.95
2022-08-12T11:42:42.463Z,3.95
2022-08-12T11:44:50.143Z,3.95
2022-08-12T11:46:55.382Z,4.13
2022-08-12T11:48:58.848Z,3.90
2022-08-12T11:51:02.399Z,4.10
2022-08-12T11:53:56.519Z,4.20
2022-08-12T11:55:33.249Z,3.97
2022-08-12T11:58:33.933Z,3.95
2022-08-12T12:02:37.750Z,4.07
2022-08-12T12:04:41.474Z,3.70
2022-08-12T12:06:49.798Z,4.18
2022-08-12T12:09:00.563Z,4.10
2022-08-12T12:11:09.449Z,4.43
2022-08-12T12:13:23.207Z,3.70
2022-08-12T12:15:40.658Z,4.10
2022-08-12T12:17:45.008Z,4.30
2022-08-12T12:19:48.832Z,4.60
2022-08-12T12:21:52.563Z,4.07
2022-08-12T12:24:00.715Z,4.53
2022-08-12T12:26:07.773Z,4.38
2022-08-12T12:28:36.616Z,4.28
2022-08-12T12:30:37.370Z,4.22
2022-08-12T12:32:41.318Z,4.43
2022-08-12T12:35:44.476Z,4.40
2022-08-12T12:38:04.463Z,4.43
2022-08-12T12:39:55.215Z,4.00
2022-08-12T12:42:42.553Z,3.90
2022-08-12T12:44:25.913Z,4.05
2022-08-12T12:46:44.675Z,4.35
2022-08-12T12:48:48.551Z,4.07
2022-08-12T12:51:09.316Z,4.18
2022-08-12T12:54:06.305Z,4.13
2022-08-12T12:55:46.564Z,4.10
2022-08-12T12:58:00.009Z,4.30
2022-08-12T13:00:21.715Z,3.92
2022-08-12T13:02:42.355Z,3.80
2022-08-12T13:04:46.837Z,3.85
2022-08-12T13:06:52.366Z,4.10
2022-08-12T13:08:56.778Z,4.10
2022-08-12T13:11:09.411Z,4.05
2022-08-12T13:14:07.993Z,3.78
2022-08-12T13:15:43.547Z,3.63
2022-08-12T13:18:02.108Z,4.07
2022-08-12T13:20:08.123Z,4.00
2022-08-12T13:22:20.670Z,4.10
2022-08-12T13:24:24.925Z,3.83
2022-08-12T13:26:40.371Z,3.42
2022-08-12T13:28:49.689Z,4.05
2022-08-12T13:31:00.347Z,3.70
2022-08-12T13:33:04.358Z,4.00
2022-08-12T13:35:19.804Z,3.70
2022-08-12T13:37:43.928Z,3.55
2022-08-12T13:39:57.771Z,3.78
2022-08-12T13:42:02.799Z,3.55
2022-08-12T13:44:11.934Z,4.10
2022-08-12T13:46:16.570Z,3.63
2022-08-12T13:48:20.214Z,3.85
2022-08-12T13:50:30.075Z,3.90
2022-08-12T13:52:35.370Z,3.80
2022-08-12T13:54:38.993Z,3.85
2022-08-12T13:56:42.605Z,3.97
2022-08-12T13:58:54.967Z,3.42
2022-08-12T14:01:06.510Z,3.67
2022-08-12T14:03:14.817Z,3.60
2022-08-12T14:05:27.540Z,4.18
2022-08-12T14:07:56.366Z,3.70
2022-08-12T14:10:23.144Z,4.00
2022-08-12T14:12:53.807Z,9.35
2022-08-12T14:15:00.535Z,4.80
2022-08-12T14:17:09.900Z,4.30
2022-08-12T14:19:22.670Z,4.70
2022-08-12T14:21:30.164Z,4.20
2022-08-12T14:24:04.038Z,4.80
2022-08-12T14:26:12.259Z,4.88
2022-08-12T14:28:18.198Z,4.60
2022-08-12T14:30:29.383Z,4.70
2022-08-12T14:32:36.229Z,4.45
2022-08-12T14:34:39.943Z,4.85
2022-08-12T14:36:47.727Z,4.32
2022-08-12T14:38:54.314Z,4.63
2022-08-12T14:40:59.910Z,4.50
2022-08-12T14:43:06.133Z,4.43
2022-08-12T14:45:11.183Z,4.80
2022-08-12T14:47:17.852Z,4.95
2022-08-12T14:50:00.979Z,5.20
2022-08-12T14:52:56.576Z,4.65
2022-08-12T14:57:00.181Z,4.28
2022-08-12T14:59:23.329Z,5.05
2022-08-12T15:01:43.042Z,5.10
2022-08-12T15:03:56.912Z,4.95
2022-08-12T15:06:06.041Z,4.82
2022-08-12T15:08:29.556Z,5.15
2022-08-12T15:10:37.191Z,5.30
2022-08-12T15:12:40.992Z,5.13
2022-08-12T15:14:45.728Z,5.75
2022-08-12T15:16:49.968Z,4.95
2022-08-12T15:18:59.233Z,5.57
2022-08-12T15:21:06.220Z,6.38
2022-08-12T15:23:18.047Z,5.75
2022-08-12T15:25:25.129Z,5.47
2022-08-12T15:28:04.500Z,6.07
2022-08-12T15:29:52.494Z,5.95
2022-08-12T15:32:01.933Z,5.78
2022-08-12T15:34:09.518Z,6.03
2022-08-12T15:36:19.517Z,5.70
2022-08-12T15:38:40.381Z,6.28
2022-08-12T15:40:48.257Z,5.65
2022-08-12T15:42:52.498Z,6.80
2022-08-12T15:44:56.473Z,6.70
2022-08-12T15:47:00.091Z,6.13
2022-08-12T15:49:04.074Z,15.00
2022-08-12T15:51:58.832Z,6.60
2022-08-12T15:54:32.245Z,6.70
2022-08-12T15:56:31.976Z,7.10
2022-08-12T15:58:38.525Z,7.93
2022-08-12T16:00:42.770Z,7.00
2022-08-12T16:02:50.328Z,7.30
2022-08-12T16:04:55.011Z,8.55
2022-08-12T16:07:08.795Z,6.93
2022-08-12T16:09:15.807Z,6.78
2022-08-12T16:11:25.673Z,6.50
2022-08-12T16:13:34.417Z,6.47
2022-08-12T16:15:42.226Z,6.43
2022-08-12T16:18:19.105Z,6.78
2022-08-12T16:20:11.778Z,6.47
2022-08-12T16:22:17.808Z,5.80
2022-08-12T16:24:21.907Z,6.22
2022-08-12T16:26:27.521Z,6.60
2022-08-12T16:28:36.981Z,6.30
2022-08-12T16:30:41.466Z,5.80
2022-08-12T16:34:58.065Z,6.75
2022-08-12T16:37:04.601Z,6.30
2022-08-12T16:39:12.755Z,6.22
2022-08-12T16:41:19.478Z,6.65
2022-08-12T16:43:25.703Z,7.03
2022-08-12T16:45:32.247Z,6.93
2022-08-12T16:47:58.558Z,7.32
2022-08-12T16:50:03.071Z,8.57
2022-08-12T16:52:12.647Z,9.40
2022-08-12T16:54:26.622Z,7.75
2022-08-12T16:56:39.715Z,7.03
2022-08-12T16:58:54.743Z,7.03
2022-08-12T17:01:01.924Z,6.85
2022-08-12T17:03:06.372Z,7.40
2022-08-12T17:05:16.141Z,7.00
2022-08-12T17:07:21.471Z,7.25
2022-08-12T17:09:27.486Z,6.78
2022-08-12T17:11:44.022Z,7.88
2022-08-12T17:13:53.414Z,7.35
2022-08-12T17:16:06.175Z,7.40
2022-08-12T17:18:42.118Z,8.20
2022-08-12T17:20:42.743Z,7.40
2022-08-12T17:22:57.644Z,6.45
2022-08-12T17:25:14.496Z,6.60
2022-08-12T17:27:20.865Z,6.97
2022-08-12T17:30:01.238Z,6.50
2022-08-12T17:32:00.646Z,6.47
2022-08-12T17:34:07.130Z,6.82
2022-08-12T17:36:21.163Z,6.70
2022-08-12T17:38:33.842Z,6.25
2022-08-12T17:40:40.362Z,6.80
2022-08-12T17:42:47.577Z,6.60
2022-08-12T17:44:52.854Z,6.80
2022-08-12T17:46:57.997Z,7.05
2022-08-12T17:49:06.912Z,7.00
2022-08-12T17:51:24.727Z,7.50
2022-08-12T17:53:29.386Z,6.82
2022-08-12T17:55:54.562Z,7.45
2022-08-12T17:58:00.244Z,7.00
2022-08-12T18:00:06.493Z,7.10
2022-08-12T18:02:13.669Z,7.20
2022-08-12T18:04:21.646Z,7.95
2022-08-12T18:06:27.920Z,6.82
2022-08-12T18:08:33.699Z,7.22
2022-08-12T18:10:55.358Z,7.35
2022-08-12T18:13:01.547Z,6.60
2022-08-12T18:15:08.783Z,6.40
2022-08-12T18:17:14.158Z,7.18
2022-08-12T18:19:18.068Z,7.03
2022-08-12T18:21:21.892Z,7.22
2022-08-12T18:23:27.251Z,6.78
2022-08-12T18:26:16.642Z,6.95
2022-08-12T18:28:19.434Z,7.20
2022-08-12T18:30:33.605Z,6.78
2022-08-12T18:32:58.331Z,6.85
2022-08-12T18:35:11.011Z,6.97
2022-08-12T18:37:40.907Z,7.00
2022-08-12T18:39:58.119Z,7.10
2022-08-12T18:42:02.226Z,6.95
2022-08-12T18:44:10.151Z,6.18
2022-08-12T18:46:17.715Z,7.10
2022-08-12T18:48:24.554Z,6.50
2022-08-12T18:50:49.011Z,6.63
2022-08-12T18:52:54.603Z,6.15
2022-08-12T18:55:06.047Z,6.72
2022-08-12T18:57:15.518Z,14.02
2022-08-12T19:00:01.334Z,23.98
2022-08-12T19:02:20.629Z,6.75
2022-08-12T19:04:17.856Z,6.43
2022-08-12T19:06:21.477Z,6.15
2022-08-12T19:08:31.574Z,6.75
2022-08-12T19:10:37.065Z,6.57
2022-08-12T19:13:01.025Z,6.80
2022-08-12T19:17:15.187Z,6.60
2022-08-12T19:19:20.635Z,7.13
2022-08-12T19:21:25.350Z,6.82
2022-08-12T19:23:34.907Z,6.65
2022-08-12T19:25:59.634Z,7.00
2022-08-12T19:28:06.781Z,6.57
2022-08-12T19:30:33.387Z,7.22
2022-08-12T19:32:49.382Z,7.32
2022-08-12T19:36:06.867Z,7.10
2022-08-12T19:37:27.565Z,6.93
2022-08-12T19:40:09.228Z,6.72
2022-08-12T19:42:07.099Z,7.38
2022-08-12T19:44:16.425Z,6.97
2022-08-12T19:46:27.706Z,6.80
2022-08-12T19:48:32.874Z,7.07
2022-08-12T19:50:39.250Z,6.75
2022-08-12T19:52:46.334Z,7.30
2022-08-12T19:54:56.379Z,7.03
2022-08-12T19:57:01.659Z,6.60
2022-08-12T19:59:23.098Z,7.28
2022-08-12T20:01:28.640Z,6.57
2022-08-12T20:03:57.578Z,6.30
2022-08-12T20:06:09.137Z,6.95
2022-08-12T20:08:31.668Z,6.70
2022-08-12T20:10:43.879Z,7.22
2022-08-12T20:13:17.635Z,7.60
2022-08-12T20:15:12.103Z,8.02
2022-08-12T20:17:23.518Z,7.72
2022-08-12T20:19:52.996Z,8.02
2022-08-12T20:21:52.495Z,8.15
2022-08-12T20:24:00.761Z,7.60
2022-08-12T20:26:08.821Z,7.55
2022-08-12T20:28:13.984Z,7.90
2022-08-12T20:30:17.861Z,9.82
2022-08-12T20:32:29.667Z,8.63
2022-08-12T20:34:33.804Z,8.80
2022-08-12T20:36:41.134Z,8.05
2022-08-12T20:38:46.877Z,7.85
2022-08-12T20:40:51.234Z,6.63
2022-08-12T20:42:55.855Z,7.40
2022-08-12T20:44:59.761Z,7.80
2022-08-12T20:47:18.633Z,7.35
2022-08-12T20:49:25.874Z,8.48
2022-08-12T20:51:55.273Z,7.03
2022-08-12T20:54:00.669Z,7.72
2022-08-12T20:56:19.630Z,7.53
2022-08-12T20:58:23.608Z,7.82
2022-08-12T21:00:28.425Z,8.25
2022-08-12T21:02:32.702Z,8.32
2022-08-12T21:04:55.594Z,7.65
2022-08-12T21:07:04.696Z,8.13
2022-08-12T21:09:12.448Z,7.57
2022-08-12T21:11:22.443Z,8.02
2022-08-12T21:13:38.962Z,8.05
2022-08-12T21:15:53.625Z,7.75
2022-08-12T21:18:11.903Z,7.68
2022-08-12T21:20:26.453Z,7.20
2022-08-12T21:22:33.528Z,7.97
2022-08-12T21:24:36.961Z,8.10
2022-08-12T21:26:53.387Z,8.40
2022-08-12T21:29:01.113Z,7.82
2022-08-12T21:32:34.591Z,7.93
2022-08-12T21:33:31.081Z,8.07
2022-08-12T21:35:40.075Z,7.35
2022-08-12T21:37:53.062Z,7.90
2022-08-12T21:39:57.410Z,7.60
2022-08-12T21:42:02.475Z,7.50
2022-08-12T21:44:24.485Z,7.88
2022-08-12T21:46:38.907Z,7.80
2022-08-12T21:48:42.734Z,7.57
2022-08-12T21:50:53.910Z,7.93
2022-08-12T21:52:59.930Z,8.65
2022-08-12T21:55:17.732Z,8.40
2022-08-12T21:57:23.823Z,7.43
2022-08-12T21:59:28.034Z,7.80
2022-08-12T22:01:35.763Z,7.85
2022-08-12T22:04:11.442Z,7.70
2022-08-12T22:06:31.286Z,7.90
2022-08-12T22:08:43.934Z,8.20
2022-08-12T22:10:52.301Z,8.75
2022-08-12T22:12:57.874Z,8.70
2022-08-12T22:15:06.670Z,9.85
2022-08-12T22:17:11.445Z,11.65
2022-08-12T22:19:23.892Z,9.20
2022-08-12T22:21:29.093Z,9.02
2022-08-12T22:23:51.811Z,9.63
2022-08-12T22:26:00.001Z,9.57
2022-08-12T22:28:24.489Z,9.60
2022-08-12T22:30:46.328Z,10.07
2022-08-12T22:32:51.539Z,10.18
2022-08-12T22:35:22.276Z,10.18
2022-08-12T22:37:29.344Z,11.75
2022-08-12T22:39:33.735Z,10.57
2022-08-12T22:41:56.977Z,10.80
2022-08-12T22:44:19.313Z,11.05
2022-08-12T22:46:53.138Z,11.68
2022-08-12T22:48:57.787Z,12.02
2022-08-12T22:51:01.385Z,11.75
2022-08-12T22:53:19.326Z,12.40
2022-08-12T22:55:59.285Z,11.18
2022-08-12T22:57:53.330Z,12.40
2022-08-12T22:59:58.777Z,13.02
2022-08-12T23:02:02.549Z,12.70
2022-08-12T23:04:08.039Z,12.15
2022-08-12T23:06:14.403Z,12.85
2022-08-12T23:08:19.373Z,13.40
2022-08-12T23:10:24.666Z,13.00
2022-08-12T23:12:46.825Z,12.70
2022-08-12T23:14:52.656Z,12.98
2022-08-12T23:16:57.571Z,13.35
2022-08-12T23:19:10.666Z,12.95
2022-08-12T23:21:23.413Z,13.13
2022-08-12T23:23:29.993Z,13.82
2022-08-12T23:25:55.385Z,13.85
2022-08-12T23:28:29.383Z,13.10
2022-08-12T23:30:34.957Z,13.77
2022-08-12T23:32:42.717Z,14.18
2022-08-12T23:34:50.570Z,14.38
2022-08-12T23:36:54.801Z,13.90
2022-08-12T23:39:02.003Z,14.35
2022-08-12T23:41:06.934Z,14.07
2022-08-12T23:43:12.412Z,14.75
2022-08-12T23:45:20.568Z,14.43
2022-08-12T23:47:38.392Z,13.82
2022-08-12T23:49:57.329Z,13.80
2022-08-12T23:52:07.445Z,14.10
2022-08-12T23:54:32.742Z,14.77
2022-08-12T23:56:39.953Z,13.63
2022-08-12T23:58:52.871Z,14.80
